Time;durP1;ratioP1;P1;durP2;ratioP2;P2;SDS_P1;SDS_P2;PMS_P1;PMS_P2;Temp;Humidity;BMP_temperature;BMP_pressure;BME280_temperature;BME280_humidity;BME280_pressure;Samples;Min_cycle;Max_cycle;Signal;HPM_P1;HPM_P2
2021/06/25 00:01:11;;;;;;;6.95;4.53;;;;;;;;;;262865;1098;101116;-74
2021/06/25 00:06:14;;;;;;;6.05;4.60;;;;;;;;;;263008;1099;100937;-72
2021/06/25 00:11:17;;;;;;;6.23;4.03;;;;;;;;;;263013;1097;100875;-74
2021/06/25 00:16:19;;;;;;;6.18;4.18;;;;;;;;;;262968;1100;101079;-73
2021/06/25 00:21:21;;;;;;;5.08;4.13;;;;;;;;;;262978;1098;101482;-74
2021/06/25 00:26:23;;;;;;;7.68;4.10;;;;;;;;;;263032;1099;101960;-74
2021/06/25 00:31:26;;;;;;;4.80;3.58;;;;;;;;;;262998;1098;102606;-73
2021/06/25 00:36:28;;;;;;;6.90;4.45;;;;;;;;;;262996;1097;101372;-72
2021/06/25 00:41:30;;;;;;;8.83;4.70;;;;;;;;;;262993;1099;101614;-73
2021/06/25 00:46:33;;;;;;;4.85;4.25;;;;;;;;;;263014;1097;101635;-72
2021/06/25 00:51:35;;;;;;;7.23;4.43;;;;;;;;;;262984;1099;101106;-73
2021/06/25 00:56:37;;;;;;;5.48;4.48;;;;;;;;;;262976;1098;101193;-73
2021/06/25 01:01:39;;;;;;;5.95;4.33;;;;;;;;;;262967;1098;101750;-74
2021/06/25 01:06:43;;;;;;;5.73;4.35;;;;;;;;;;263034;1097;102911;-75
2021/06/25 01:11:46;;;;;;;5.27;4.77;;;;;;;;;;262998;1097;101948;-74
2021/06/25 01:16:48;;;;;;;6.43;4.58;;;;;;;;;;262969;1097;102201;-73
2021/06/25 01:21:50;;;;;;;6.45;4.85;;;;;;;;;;263051;1099;101152;-73
2021/06/25 01:26:52;;;;;;;7.85;5.10;;;;;;;;;;262990;1099;101044;-72
2021/06/25 01:31:55;;;;;;;7.70;5.38;;;;;;;;;;263021;1099;101170;-73
2021/06/25 01:36:57;;;;;;;5.18;4.70;;;;;;;;;;263016;1097;101821;-73
2021/06/25 01:42:00;;;;;;;7.40;6.25;;;;;;;;;;262968;1097;101186;-74
2021/06/25 01:47:02;;;;;;;7.50;5.45;;;;;;;;;;262996;1097;102634;-72
2021/06/25 01:52:05;;;;;;;7.30;5.87;;;;;;;;;;262956;1098;101122;-73
2021/06/25 01:57:07;;;;;;;6.78;5.60;;;;;;;;;;263069;1097;101097;-72
2021/06/25 02:02:09;;;;;;;9.08;5.53;;;;;;;;;;263023;1097;101820;-72
2021/06/25 02:07:12;;;;;;;8.30;5.05;;;;;;;;;;263001;1097;101260;-73
2021/06/25 02:12:14;;;;;;;7.10;6.13;;;;;;;;;;263012;1097;101103;-74
2021/06/25 02:17:17;;;;;;;6.70;6.03;;;;;;;;;;263045;1097;101452;-72
2021/06/25 02:22:19;;;;;;;7.58;5.93;;;;;;;;;;262984;1098;101254;-73
2021/06/25 02:27:21;;;;;;;6.48;5.70;;;;;;;;;;263032;1097;101965;-72
2021/06/25 02:32:23;;;;;;;6.30;5.70;;;;;;;;;;263032;1098;101169;-73
2021/06/25 02:37:26;;;;;;;6.85;6.15;;;;;;;;;;263177;1097;101660;-72
2021/06/25 02:42:28;;;;;;;7.85;5.75;;;;;;;;;;263028;1098;101131;-73
2021/06/25 02:47:30;;;;;;;7.23;5.53;;;;;;;;;;263060;1099;110469;-72
2021/06/25 02:52:33;;;;;;;9.43;6.05;;;;;;;;;;263066;1098;101880;-74
2021/06/25 02:57:35;;;;;;;7.28;6.28;;;;;;;;;;263006;1097;100828;-72
2021/06/25 03:02:38;;;;;;;8.33;5.75;;;;;;;;;;262909;1097;101116;-72
2021/06/25 03:07:40;;;;;;;6.68;6.00;;;;;;;;;;263024;1098;101384;-73
2021/06/25 03:12:42;;;;;;;7.90;6.33;;;;;;;;;;262925;1097;100733;-73
2021/06/25 03:17:45;;;;;;;7.85;6.50;;;;;;;;;;263035;1097;102481;-73
2021/06/25 03:22:47;;;;;;;8.58;6.50;;;;;;;;;;262953;1097;101091;-72
2021/06/25 03:27:49;;;;;;;7.30;6.70;;;;;;;;;;263023;1097;101187;-72
2021/06/25 03:32:54;;;;;;;7.43;6.13;;;;;;;;;;262977;1097;101078;-74
2021/06/25 03:38:05;;;;;;;;;;;;;;;;;;262900;1097;101413;-74
2021/06/25 03:43:07;;;;;;;9.80;7.13;;;;;;;;;;263032;1097;101861;-74
2021/06/25 03:48:10;;;;;;;7.97;6.90;;;;;;;;;;262983;1097;101421;-73
2021/06/25 03:53:12;;;;;;;9.70;8.13;;;;;;;;;;263052;1100;101341;-72
2021/06/25 03:58:14;;;;;;;10.50;7.70;;;;;;;;;;262992;1097;100934;-74
2021/06/25 04:03:17;;;;;;;9.53;7.50;;;;;;;;;;263012;1097;101069;-73
2021/06/25 04:08:19;;;;;;;9.75;8.70;;;;;;;;;;263233;1097;102122;-73
2021/06/25 04:13:22;;;;;;;9.08;8.18;;;;;;;;;;262952;1097;100846;-75
2021/06/25 04:18:24;;;;;;;10.70;8.60;;;;;;;;;;263050;1097;101270;-72
2021/06/25 04:23:27;;;;;;;9.33;8.28;;;;;;;;;;263044;1098;101115;-72
2021/06/25 04:28:29;;;;;;;11.43;9.08;;;;;;;;;;262942;1099;101151;-74
2021/06/25 04:33:32;;;;;;;10.78;9.05;;;;;;;;;;262882;1097;102715;-73
2021/06/25 04:38:34;;;;;;;10.28;9.23;;;;;;;;;;263011;1097;101068;-73
2021/06/25 04:43:36;;;;;;;10.73;9.00;;;;;;;;;;262929;1097;101005;-72
2021/06/25 04:48:41;;;;;;;11.20;10.00;;;;;;;;;;263003;1097;101217;-73
2021/06/25 04:53:44;;;;;;;11.53;9.98;;;;;;;;;;262958;1100;101389;-73
2021/06/25 04:58:46;;;;;;;10.08;9.08;;;;;;;;;;263040;1098;101924;-73
2021/06/25 05:03:49;;;;;;;13.33;11.18;;;;;;;;;;263001;1097;101300;-75
2021/06/25 05:08:51;;;;;;;12.83;11.65;;;;;;;;;;262963;1099;101291;-74
2021/06/25 05:13:53;;;;;;;14.58;11.08;;;;;;;;;;263057;1097;100886;-74
2021/06/25 05:18:56;;;;;;;14.10;12.80;;;;;;;;;;262993;1097;101161;-74
2021/06/25 05:23:59;;;;;;;15.88;14.30;;;;;;;;;;263024;1097;101871;-74
2021/06/25 05:29:01;;;;;;;20.18;17.00;;;;;;;;;;263006;1100;101082;-74
2021/06/25 05:34:03;;;;;;;21.60;19.33;;;;;;;;;;263021;1097;101136;-74
2021/06/25 05:39:06;;;;;;;24.20;21.68;;;;;;;;;;262988;1097;102228;-72
2021/06/25 05:44:08;;;;;;;24.98;22.30;;;;;;;;;;263018;1097;101100;-73
2021/06/25 05:49:10;;;;;;;27.38;23.60;;;;;;;;;;263004;1097;101880;-76
2021/06/25 05:54:13;;;;;;;31.70;28.48;;;;;;;;;;263024;1097;101158;-73
2021/06/25 05:59:15;;;;;;;26.63;24.15;;;;;;;;;;262981;1098;101162;-75
2021/06/25 06:04:17;;;;;;;26.63;23.78;;;;;;;;;;263020;1097;101140;-73
2021/06/25 06:09:21;;;;;;;28.35;25.35;;;;;;;;;;262996;1098;101185;-73
2021/06/25 06:14:23;;;;;;;32.25;28.85;;;;;;;;;;262996;1098;102103;-76
2021/06/25 06:19:25;;;;;;;33.35;30.00;;;;;;;;;;263174;1097;103401;-73
2021/06/25 06:35:09;;;;;;;38.38;32.85;;;;;;;;;;263050;1097;100936;-73
2021/06/25 06:40:12;;;;;;;32.25;29.13;;;;;;;;;;262998;1098;101512;-74
2021/06/25 06:45:16;;;;;;;32.93;29.63;;;;;;;;;;263054;1097;101379;-73
2021/06/25 06:50:18;;;;;;;;;;;;;;;;;;262971;1098;100938;-73
2021/06/25 06:55:22;;;;;;;35.73;32.05;;;;;;;;;;263076;1098;101201;-77
2021/06/25 07:00:24;;;;;;;37.98;34.15;;;;;;;;;;263024;1099;102608;-75
2021/06/25 07:05:26;;;;;;;40.85;36.93;;;;;;;;;;263060;1097;101423;-73
2021/06/25 07:10:28;;;;;;;46.15;41.30;;;;;;;;;;262921;1097;101464;-75
2021/06/25 07:15:31;;;;;;;44.83;40.40;;;;;;;;;;263033;1099;101150;-75
2021/06/25 07:20:33;;;;;;;46.25;41.75;;;;;;;;;;262972;1097;101315;-74
2021/06/25 07:25:35;;;;;;;46.15;41.45;;;;;;;;;;262983;1098;101224;-74
2021/06/25 07:30:37;;;;;;;49.30;44.33;;;;;;;;;;263024;1097;101793;-74
2021/06/25 07:35:40;;;;;;;41.35;37.03;;;;;;;;;;263025;1097;102586;-73
2021/06/25 07:40:42;;;;;;;40.35;36.25;;;;;;;;;;262973;1099;101169;-74
2021/06/25 07:45:44;;;;;;;36.70;32.88;;;;;;;;;;263048;1098;101254;-75
2021/06/25 07:50:46;;;;;;;34.88;31.38;;;;;;;;;;262996;1097;101406;-72
2021/06/25 07:55:49;;;;;;;36.28;32.70;;;;;;;;;;263001;1099;101946;-74
2021/06/25 08:00:51;;;;;;;40.05;35.80;;;;;;;;;;262932;1097;101261;-72
2021/06/25 08:05:54;;;;;;;42.40;38.15;;;;;;;;;;263008;1097;101216;-73
2021/06/25 08:10:56;;;;;;;40.05;35.98;;;;;;;;;;263034;1098;100888;-73
2021/06/25 08:15:59;;;;;;;32.73;29.50;;;;;;;;;;263028;1097;101447;-73
2021/06/25 08:21:01;;;;;;;28.40;25.40;;;;;;;;;;262989;1097;101768;-72
2021/06/25 08:26:03;;;;;;;27.15;24.33;;;;;;;;;;262951;1100;101094;-73
2021/06/25 08:31:05;;;;;;;40.88;36.65;;;;;;;;;;263016;1099;100939;-73
2021/06/25 08:36:08;;;;;;;31.53;28.35;;;;;;;;;;263172;1100;101433;-73
2021/06/25 08:41:10;;;;;;;29.80;26.70;;;;;;;;;;263410;1098;100924;-75
2021/06/25 08:46:13;;;;;;;31.85;26.83;;;;;;;;;;263017;1099;101884;-73
2021/06/25 08:51:15;;;;;;;32.08;28.68;;;;;;;;;;262905;1099;101179;-75
2021/06/25 08:56:18;;;;;;;27.73;24.93;;;;;;;;;;262978;1097;102286;-72
2021/06/25 09:01:21;;;;;;;30.68;27.30;;;;;;;;;;262946;1100;101128;-74
2021/06/25 09:06:25;;;;;;;30.45;27.28;;;;;;;;;;262993;1097;101412;-72
2021/06/25 09:11:33;;;;;;;29.75;26.58;;;;;;;;;;263003;1097;102040;-74
2021/06/25 09:16:36;;;;;;;30.53;27.18;;;;;;;;;;262920;1097;101198;-73
2021/06/25 09:21:40;;;;;;;33.53;28.68;;;;;;;;;;262799;1099;101837;-72
2021/06/25 09:26:42;;;;;;;30.40;27.23;;;;;;;;;;263056;1098;100939;-74
2021/06/25 09:31:54;;;;;;;33.78;30.13;;;;;;;;;;263003;1098;100801;-74
2021/06/25 09:37:01;;;;;;;32.55;29.05;;;;;;;;;;263084;1100;101982;-74
2021/06/25 09:42:03;;;;;;;31.85;26.83;;;;;;;;;;263048;1100;101848;-74
2021/06/25 09:47:06;;;;;;;29.03;26.00;;;;;;;;;;263435;1100;100853;-74
2021/06/25 09:52:08;;;;;;;29.33;24.85;;;;;;;;;;263368;1099;101593;-75
2021/06/25 09:57:13;;;;;;;29.28;26.30;;;;;;;;;;263520;1097;100884;-73
2021/06/25 10:02:19;;;;;;;29.80;26.43;;;;;;;;;;263166;1099;102082;-76
2021/06/25 10:07:21;;;;;;;26.55;23.75;;;;;;;;;;263007;1098;107491;-76
2021/06/25 10:12:24;;;;;;;27.78;24.98;;;;;;;;;;263026;1097;101362;-74
2021/06/25 10:17:29;;;;;;;27.10;24.45;;;;;;;;;;263163;1097;101274;-73
2021/06/25 10:22:32;;;;;;;22.83;20.35;;;;;;;;;;262987;1100;101210;-74
2021/06/25 10:27:35;;;;;;;27.70;24.90;;;;;;;;;;262966;1098;117744;-72
2021/06/25 10:32:39;;;;;;;27.05;24.35;;;;;;;;;;262992;1097;101226;-75
2021/06/25 10:37:45;;;;;;;29.98;26.78;;;;;;;;;;262972;1097;101289;-74
2021/06/25 10:42:47;;;;;;;29.48;26.10;;;;;;;;;;263019;1098;100840;-74
2021/06/25 10:47:53;;;;;;;31.00;27.90;;;;;;;;;;262952;1097;101066;-74
2021/06/25 10:53:04;;;;;;;30.30;27.38;;;;;;;;;;263026;1098;101484;-73
2021/06/25 10:58:07;;;;;;;32.15;28.98;;;;;;;;;;262951;1097;101122;-74
2021/06/25 11:03:29;;;;;;;28.55;25.75;;;;;;;;;;263011;1099;101116;-74
2021/06/25 11:08:31;;;;;;;30.10;27.20;;;;;;;;;;262897;1098;111909;-74
2021/06/25 11:13:36;;;;;;;31.15;28.10;;;;;;;;;;262997;1097;101490;-73
2021/06/25 11:18:43;;;;;;;28.43;25.65;;;;;;;;;;263000;1097;101484;-73
2021/06/25 11:23:47;;;;;;;28.80;26.00;;;;;;;;;;263003;1098;101399;-74
2021/06/25 11:29:07;;;;;;;31.35;28.25;;;;;;;;;;263111;1096;101198;-73
2021/06/25 11:34:10;;;;;;;27.95;24.83;;;;;;;;;;263744;1098;101230;-74
2021/06/25 11:39:12;;;;;;;27.95;25.05;;;;;;;;;;263089;1100;101199;-73
2021/06/25 11:44:16;;;;;;;27.93;25.25;;;;;;;;;;263028;1097;101855;-75
2021/06/25 11:49:22;;;;;;;26.83;24.28;;;;;;;;;;262962;1097;101085;-72
2021/06/25 11:54:36;;;;;;;29.90;27.00;;;;;;;;;;262242;1098;101302;-74
2021/06/25 11:59:38;;;;;;;31.25;28.33;;;;;;;;;;262963;1100;101160;-75
2021/06/25 12:04:42;;;;;;;28.45;25.85;;;;;;;;;;263013;1098;101303;-73
2021/06/25 12:09:51;;;;;;;30.53;27.33;;;;;;;;;;262993;1097;118086;-74
2021/06/25 12:14:58;;;;;;;26.93;24.23;;;;;;;;;;262994;1098;101198;-74
2021/06/25 12:20:11;;;;;;;26.45;23.88;;;;;;;;;;263026;1097;100993;-74
2021/06/25 12:25:14;;;;;;;30.58;27.53;;;;;;;;;;262915;1100;101180;-72
2021/06/25 12:30:17;;;;;;;31.55;28.48;;;;;;;;;;263007;1099;101277;-74
2021/06/25 12:35:19;;;;;;;29.23;26.38;;;;;;;;;;263007;1097;101991;-73
2021/06/25 12:40:40;;;;;;;30.20;27.40;;;;;;;;;;262979;1098;101520;-73
2021/06/25 12:45:42;;;;;;;37.30;33.70;;;;;;;;;;263010;1099;100849;-73
2021/06/25 12:50:45;;;;;;;35.05;31.58;;;;;;;;;;263054;1097;101655;-75
2021/06/25 12:55:48;;;;;;;35.70;32.10;;;;;;;;;;263031;1098;100953;-73
2021/06/25 13:00:58;;;;;;;31.83;28.60;;;;;;;;;;263007;1098;118031;-72
2021/06/25 13:06:00;;;;;;;35.43;31.63;;;;;;;;;;263037;1100;101301;-74
2021/06/25 13:11:38;;;;;;;;;;;;;;;;;;;;;
2021/06/25 13:16:41;;;;;;;28.43;25.73;;;;;;;;;;263299;1097;100885;-72
2021/06/25 13:21:49;;;;;;;34.80;31.40;;;;;;;;;;263573;1099;101257;-73
2021/06/25 13:26:51;;;;;;;28.50;25.68;;;;;;;;;;263382;1097;101564;-73
2021/06/25 13:31:55;;;;;;;29.93;27.03;;;;;;;;;;263586;1098;100792;-73
2021/06/25 13:37:04;;;;;;;29.68;26.70;;;;;;;;;;263016;1097;101132;-73
2021/06/25 13:42:14;;;;;;;26.18;23.73;;;;;;;;;;262956;1097;100891;-74
2021/06/25 13:47:16;;;;;;;31.05;28.05;;;;;;;;;;263283;1099;100940;-73
2021/06/25 13:52:25;;;;;;;33.50;30.30;;;;;;;;;;263453;1098;100962;-73
2021/06/25 13:57:27;;;;;;;35.73;32.30;;;;;;;;;;262975;1098;101151;-73
2021/06/25 14:02:30;;;;;;;33.88;30.58;;;;;;;;;;262969;1099;101048;-73
2021/06/25 14:07:53;;;;;;;29.30;26.50;;;;;;;;;;263003;1097;101459;-75
2021/06/25 14:13:04;;;;;;;32.78;29.58;;;;;;;;;;262762;1099;101061;-74
2021/06/25 14:18:17;;;;;;;33.70;30.20;;;;;;;;;;262688;1098;101477;-73
2021/06/25 14:23:22;;;;;;;32.78;29.55;;;;;;;;;;262733;1098;101256;-74
2021/06/25 14:28:25;;;;;;;25.70;23.25;;;;;;;;;;263067;1099;101936;-72
2021/06/25 14:33:28;;;;;;;29.60;26.85;;;;;;;;;;263017;1096;101185;-73
2021/06/25 14:38:30;;;;;;;31.80;28.45;;;;;;;;;;263065;1097;100989;-74
2021/06/25 14:43:32;;;;;;;24.55;22.00;;;;;;;;;;263018;1100;102831;-74
2021/06/25 14:48:35;;;;;;;26.88;24.30;;;;;;;;;;262965;1099;101053;-74
2021/06/25 14:53:38;;;;;;;29.28;26.55;;;;;;;;;;262993;1100;101132;-73
2021/06/25 14:58:40;;;;;;;30.25;27.25;;;;;;;;;;262961;1099;101063;-74
2021/06/25 15:03:43;;;;;;;26.15;23.38;;;;;;;;;;262988;1098;101100;-74
2021/06/25 15:08:45;;;;;;;21.35;19.43;;;;;;;;;;263043;1097;101909;-76
2021/06/25 15:13:47;;;;;;;17.90;16.18;;;;;;;;;;262963;1097;101081;-73
2021/06/25 15:18:51;;;;;;;18.75;16.85;;;;;;;;;;263026;1098;101197;-72
2021/06/25 15:23:53;;;;;;;20.33;18.28;;;;;;;;;;262963;1100;101216;-75
2021/06/25 15:28:55;;;;;;;22.60;20.40;;;;;;;;;;263039;1097;101171;-74
2021/06/25 15:33:57;;;;;;;24.38;22.18;;;;;;;;;;263058;1098;101796;-76
2021/06/25 15:38:59;;;;;;;21.10;19.05;;;;;;;;;;262990;1098;100828;-74
2021/06/25 15:44:02;;;;;;;22.88;19.28;;;;;;;;;;262964;1097;101272;-73
2021/06/25 15:49:05;;;;;;;21.10;19.05;;;;;;;;;;262992;1097;101074;-73
2021/06/25 15:54:07;;;;;;;22.98;20.68;;;;;;;;;;263012;1099;101120;-73
2021/06/25 15:59:15;;;;;;;22.85;20.80;;;;;;;;;;262823;1098;102017;-75
2021/06/25 16:05:07;;;;;;;19.60;17.73;;;;;;;;;;262266;1097;100997;-73
2021/06/25 16:10:13;;;;;;;22.88;20.78;;;;;;;;;;262998;1098;100902;-74
2021/06/25 16:15:47;;;;;;;22.68;20.45;;;;;;;;;;263062;1098;101580;-73
2021/06/25 16:21:11;;;;;;;19.33;17.50;;;;;;;;;;263260;1097;100900;-74
2021/06/25 16:26:25;;;;;;;19.55;16.60;;;;;;;;;;263069;1100;102256;-74
2021/06/25 16:31:27;;;;;;;16.85;15.15;;;;;;;;;;263062;1097;100936;-74
2021/06/25 16:36:30;;;;;;;16.65;15.15;;;;;;;;;;263002;1100;101139;-74
2021/06/25 16:41:33;;;;;;;16.58;14.90;;;;;;;;;;262972;1098;101233;-75
2021/06/25 16:46:35;;;;;;;14.58;13.25;;;;;;;;;;263145;1099;101076;-76
2021/06/25 16:51:37;;;;;;;14.10;12.70;;;;;;;;;;263267;1098;101914;-73
2021/06/25 17:02:28;;;;;;;14.83;12.53;;;;;;;;;;262764;1100;101219;-77
2021/06/25 17:07:30;;;;;;;13.08;11.88;;;;;;;;;;263145;1100;101169;-73
2021/06/25 17:12:32;;;;;;;13.43;12.20;;;;;;;;;;263136;1099;101104;-74
2021/06/25 17:17:37;;;;;;;11.65;10.15;;;;;;;;;;263031;1098;101572;-75
2021/06/25 17:22:39;;;;;;;11.98;10.78;;;;;;;;;;263172;1097;101720;-74
2021/06/25 17:27:42;;;;;;;12.95;11.60;;;;;;;;;;263141;1097;101121;-76
2021/06/25 17:32:44;;;;;;;10.33;9.35;;;;;;;;;;263034;1097;101192;-73
2021/06/25 17:37:47;;;;;;;11.10;9.90;;;;;;;;;;263048;1097;101353;-73
2021/06/25 17:42:50;;;;;;;11.48;10.43;;;;;;;;;;263074;1097;102451;-73
2021/06/25 17:47:52;;;;;;;12.05;10.73;;;;;;;;;;263316;1097;101222;-73
2021/06/25 17:52:54;;;;;;;11.75;10.55;;;;;;;;;;263022;1098;101016;-77
2021/06/25 17:57:57;;;;;;;13.48;10.93;;;;;;;;;;263003;1096;101338;-75
2021/06/25 18:02:59;;;;;;;11.35;10.25;;;;;;;;;;262976;1097;101172;-73
2021/06/25 18:08:02;;;;;;;13.83;12.48;;;;;;;;;;263064;1097;102087;-73
2021/06/25 18:13:05;;;;;;;12.68;11.40;;;;;;;;;;262968;1097;101245;-72
2021/06/25 18:18:15;;;;;;;12.63;10.48;;;;;;;;;;263145;1098;101024;-76
2021/06/25 18:23:32;;;;;;;12.48;11.13;;;;;;;;;;263015;1097;101126;-75
2021/06/25 18:28:35;;;;;;;13.63;12.33;;;;;;;;;;263033;1097;101092;-74
2021/06/25 18:33:39;;;;;;;;;;;;;;;;;;263006;1097;101741;-73
2021/06/25 18:38:41;;;;;;;10.83;9.73;;;;;;;;;;262536;1099;101174;-74
2021/06/25 18:43:43;;;;;;;11.35;10.15;;;;;;;;;;263018;1098;101457;-75
2021/06/25 18:48:47;;;;;;;15.38;13.73;;;;;;;;;;263056;1098;101071;-74
2021/06/25 18:53:50;;;;;;;12.95;11.63;;;;;;;;;;263048;1097;101310;-74
2021/06/25 18:58:52;;;;;;;12.80;10.60;;;;;;;;;;263030;1098;101916;-73
2021/06/25 19:03:54;;;;;;;12.15;11.10;;;;;;;;;;262980;1097;101246;-74
2021/06/25 19:08:57;;;;;;;11.78;10.58;;;;;;;;;;262994;1099;101055;-74
2021/06/25 19:13:59;;;;;;;12.35;9.80;;;;;;;;;;262960;1097;100818;-73
2021/06/25 19:19:02;;;;;;;11.75;10.63;;;;;;;;;;263053;1097;101303;-74
2021/06/25 19:24:05;;;;;;;10.50;9.50;;;;;;;;;;263013;1098;102749;-73
2021/06/25 19:29:08;;;;;;;11.58;10.50;;;;;;;;;;262996;1097;101113;-77
2021/06/25 19:34:10;;;;;;;11.05;9.40;;;;;;;;;;262976;1098;101418;-73
2021/06/25 19:39:12;;;;;;;9.20;8.30;;;;;;;;;;263017;1097;101182;-74
2021/06/25 19:44:14;;;;;;;9.20;8.38;;;;;;;;;;263047;1097;101037;-74
2021/06/25 19:49:17;;;;;;;9.00;8.20;;;;;;;;;;263016;1097;101827;-74
2021/06/25 19:54:19;;;;;;;7.38;6.75;;;;;;;;;;262958;1099;101114;-75
2021/06/25 19:59:21;;;;;;;11.48;7.60;;;;;;;;;;263009;1097;100940;-75
2021/06/25 20:04:23;;;;;;;7.90;7.20;;;;;;;;;;263017;1098;101225;-74
2021/06/25 20:09:26;;;;;;;8.40;7.27;;;;;;;;;;263026;1099;101791;-75
2021/06/25 20:14:28;;;;;;;7.43;6.73;;;;;;;;;;262959;1097;101923;-74
2021/06/25 20:19:31;;;;;;;7.63;6.98;;;;;;;;;;262950;1099;101202;-75
2021/06/25 20:24:33;;;;;;;7.00;6.50;;;;;;;;;;263045;1099;100927;-75
2021/06/25 20:29:35;;;;;;;7.25;6.55;;;;;;;;;;263302;1098;101529;-74
2021/06/25 20:34:37;;;;;;;7.67;6.97;;;;;;;;;;263014;1099;100988;-73
2021/06/25 20:39:40;;;;;;;7.13;6.53;;;;;;;;;;263035;1097;101459;-73
2021/06/25 20:44:47;;;;;;;10.03;9.03;;;;;;;;;;262921;1098;101229;-74
2021/06/25 20:49:50;;;;;;;8.73;7.83;;;;;;;;;;263035;1098;100880;-73
2021/06/25 20:54:52;;;;;;;9.28;8.10;;;;;;;;;;263463;1099;101389;-74
2021/06/25 20:59:55;;;;;;;9.30;8.37;;;;;;;;;;263060;1098;101321;-75
2021/06/25 21:04:57;;;;;;;7.70;6.95;;;;;;;;;;262984;1097;101874;-74
2021/06/25 21:09:59;;;;;;;8.43;7.73;;;;;;;;;;262984;1099;100847;-72
2021/06/25 21:15:02;;;;;;;9.08;8.20;;;;;;;;;;262973;1098;101764;-74
2021/06/25 21:20:04;;;;;;;8.80;8.00;;;;;;;;;;262923;1097;100766;-73
2021/06/25 21:25:07;;;;;;;9.65;7.90;;;;;;;;;;262970;1098;101095;-74
2021/06/25 21:30:10;;;;;;;10.00;9.18;;;;;;;;;;263024;1097;101884;-73
2021/06/25 21:35:13;;;;;;;8.63;7.68;;;;;;;;;;263006;1097;101336;-73
2021/06/25 21:40:15;;;;;;;8.00;7.25;;;;;;;;;;262978;1098;101206;-74
2021/06/25 21:45:18;;;;;;;8.43;7.53;;;;;;;;;;262947;1097;101316;-74
2021/06/25 21:50:20;;;;;;;7.70;6.95;;;;;;;;;;263050;1097;101363;-74
2021/06/25 21:55:22;;;;;;;8.05;7.25;;;;;;;;;;262886;1099;101475;-73
2021/06/25 22:00:25;;;;;;;6.50;6.00;;;;;;;;;;262931;1099;101115;-73
2021/06/25 22:05:27;;;;;;;5.33;4.83;;;;;;;;;;263006;1097;102581;-73
2021/06/25 22:10:29;;;;;;;6.90;6.30;;;;;;;;;;263025;1099;101185;-73
2021/06/25 22:15:31;;;;;;;6.48;5.88;;;;;;;;;;263024;1097;101074;-73
2021/06/25 22:20:34;;;;;;;6.85;6.05;;;;;;;;;;263077;1097;101506;-74
2021/06/25 22:25:36;;;;;;;6.58;6.03;;;;;;;;;;263036;1097;101265;-74
2021/06/25 22:30:38;;;;;;;6.30;5.78;;;;;;;;;;263057;1097;101357;-74
2021/06/25 22:35:40;;;;;;;6.15;5.65;;;;;;;;;;262933;1098;101202;-72
2021/06/25 22:40:42;;;;;;;6.40;6.00;;;;;;;;;;263007;1098;101075;-74
2021/06/25 22:45:45;;;;;;;6.85;6.25;;;;;;;;;;263007;1097;101984;-73
2021/06/25 22:50:48;;;;;;;6.55;5.95;;;;;;;;;;262976;1098;101108;-74
2021/06/25 22:55:50;;;;;;;7.18;6.48;;;;;;;;;;262977;1098;101190;-74
2021/06/25 23:00:52;;;;;;;6.63;6.03;;;;;;;;;;263043;1098;101128;-73
2021/06/25 23:05:54;;;;;;;7.50;6.90;;;;;;;;;;263018;1098;102126;-73
2021/06/25 23:10:57;;;;;;;7.05;6.23;;;;;;;;;;262992;1097;102603;-72
2021/06/25 23:15:59;;;;;;;8.73;6.73;;;;;;;;;;262946;1098;100820;-73
2021/06/25 23:21:01;;;;;;;5.07;4.70;;;;;;;;;;262965;1099;100917;-74
2021/06/25 23:26:04;;;;;;;5.78;5.28;;;;;;;;;;263003;1099;101149;-75
2021/06/25 23:31:06;;;;;;;4.23;3.93;;;;;;;;;;263074;1097;100842;-74
2021/06/25 23:36:08;;;;;;;4.50;4.10;;;;;;;;;;262983;1097;101946;-73
2021/06/25 23:41:10;;;;;;;5.48;5.08;;;;;;;;;;262999;1098;102744;-74
2021/06/25 23:46:13;;;;;;;7.33;6.50;;;;;;;;;;262939;1098;102399;-73
2021/06/25 23:51:15;;;;;;;6.40;5.78;;;;;;;;;;263027;1099;100889;-74
2021/06/25 23:56:17;;;;;;;7.20;6.58;;;;;;;;;;262985;1099;101215;-73
